sensor_id;sensor_type;location;lat;lon;timestamp;P1;durP1;ratioP1;P2;durP2;ratioP2
10365;SDS011;5229;41.820;23.490;2022-08-19T00:00:43;4.50;;;3.63;;
10365;SDS011;5229;41.820;23.490;2022-08-19T00:03:10;3.73;;;3.40;;
10365;SDS011;5229;41.820;23.490;2022-08-19T00:05:37;3.90;;;3.50;;
10365;SDS011;5229;41.820;23.490;2022-08-19T00:08:05;3.77;;;3.37;;
10365;SDS011;5229;41.820;23.490;2022-08-19T00:10:32;3.80;;;3.40;;
10365;SDS011;5229;41.820;23.490;2022-08-19T00:13:01;4.37;;;3.97;;
10365;SDS011;5229;41.820;23.490;2022-08-19T00:15:29;4.73;;;3.90;;
10365;SDS011;5229;41.820;23.490;2022-08-19T00:17:56;4.17;;;3.83;;
10365;SDS011;5229;41.820;23.490;2022-08-19T00:20:23;3.80;;;3.40;;
10365;SDS011;5229;41.820;23.490;2022-08-19T00:22:50;3.63;;;3.33;;
10365;SDS011;5229;41.820;23.490;2022-08-19T00:25:17;3.90;;;3.60;;
10365;SDS011;5229;41.820;23.490;2022-08-19T00:27:44;4.07;;;3.60;;
10365;SDS011;5229;41.820;23.490;2022-08-19T00:30:14;4.20;;;3.40;;
10365;SDS011;5229;41.820;23.490;2022-08-19T00:32:41;3.83;;;3.37;;
10365;SDS011;5229;41.820;23.490;2022-08-19T00:35:08;4.63;;;3.63;;
10365;SDS011;5229;41.820;23.490;2022-08-19T00:37:36;4.17;;;3.77;;
10365;SDS011;5229;41.820;23.490;2022-08-19T00:46:06;4.07;;;3.40;;
10365;SDS011;5229;41.820;23.490;2022-08-19T00:48:33;3.60;;;3.27;;
10365;SDS011;5229;41.820;23.490;2022-08-19T00:51:01;3.77;;;3.47;;
10365;SDS011;5229;41.820;23.490;2022-08-19T00:53:30;4.57;;;3.43;;
10365;SDS011;5229;41.820;23.490;2022-08-19T00:56:01;6.10;;;3.97;;
10365;SDS011;5229;41.820;23.490;2022-08-19T00:58:32;4.47;;;4.07;;
10365;SDS011;5229;41.820;23.490;2022-08-19T01:01:04;3.80;;;3.50;;
10365;SDS011;5229;41.820;23.490;2022-08-19T01:03:32;4.53;;;3.60;;
10365;SDS011;5229;41.820;23.490;2022-08-19T01:05:59;5.33;;;3.60;;
10365;SDS011;5229;41.820;23.490;2022-08-19T01:08:26;4.43;;;3.90;;
10365;SDS011;5229;41.820;23.490;2022-08-19T01:10:53;4.33;;;3.93;;
10365;SDS011;5229;41.820;23.490;2022-08-19T01:13:23;4.70;;;3.87;;
10365;SDS011;5229;41.820;23.490;2022-08-19T01:15:54;4.30;;;3.90;;
10365;SDS011;5229;41.820;23.490;2022-08-19T01:18:25;4.50;;;4.10;;
10365;SDS011;5229;41.820;23.490;2022-08-19T01:20:54;4.07;;;3.77;;
10365;SDS011;5229;41.820;23.490;2022-08-19T01:23:25;4.63;;;3.63;;
10365;SDS011;5229;41.820;23.490;2022-08-19T01:26:07;4.13;;;3.73;;
10365;SDS011;5229;41.820;23.490;2022-08-19T01:28:35;4.57;;;3.87;;
10365;SDS011;5229;41.820;23.490;2022-08-19T01:31:03;4.90;;;4.37;;
10365;SDS011;5229;41.820;23.490;2022-08-19T01:33:34;4.10;;;3.63;;
10365;SDS011;5229;41.820;23.490;2022-08-19T01:39:24;3.50;;;3.20;;
10365;SDS011;5229;41.820;23.490;2022-08-19T01:41:51;4.00;;;3.57;;
10365;SDS011;5229;41.820;23.490;2022-08-19T01:44:26;4.53;;;3.60;;
10365;SDS011;5229;41.820;23.490;2022-08-19T01:46:53;3.80;;;3.50;;
10365;SDS011;5229;41.820;23.490;2022-08-19T01:49:20;5.90;;;4.10;;
10365;SDS011;5229;41.820;23.490;2022-08-19T01:51:50;3.77;;;3.27;;
10365;SDS011;5229;41.820;23.490;2022-08-19T01:54:17;4.43;;;4.03;;
10365;SDS011;5229;41.820;23.490;2022-08-19T01:56:47;4.00;;;3.67;;
10365;SDS011;5229;41.820;23.490;2022-08-19T01:59:14;3.90;;;3.50;;
10365;SDS011;5229;41.820;23.490;2022-08-19T02:01:47;4.37;;;3.97;;
10365;SDS011;5229;41.820;23.490;2022-08-19T02:04:14;3.60;;;3.30;;
10365;SDS011;5229;41.820;23.490;2022-08-19T02:06:41;3.93;;;3.63;;
10365;SDS011;5229;41.820;23.490;2022-08-19T02:09:08;4.53;;;3.27;;
10365;SDS011;5229;41.820;23.490;2022-08-19T02:11:35;3.93;;;3.63;;
10365;SDS011;5229;41.820;23.490;2022-08-19T02:14:06;4.27;;;3.80;;
10365;SDS011;5229;41.820;23.490;2022-08-19T02:16:34;3.33;;;3.13;;
10365;SDS011;5229;41.820;23.490;2022-08-19T02:19:02;3.83;;;3.47;;
10365;SDS011;5229;41.820;23.490;2022-08-19T02:21:32;4.47;;;4.07;;
10365;SDS011;5229;41.820;23.490;2022-08-19T02:23:59;5.27;;;3.77;;
10365;SDS011;5229;41.820;23.490;2022-08-19T02:26:26;3.93;;;3.60;;
10365;SDS011;5229;41.820;23.490;2022-08-19T02:28:53;3.40;;;3.10;;
10365;SDS011;5229;41.820;23.490;2022-08-19T02:31:23;3.60;;;3.30;;
10365;SDS011;5229;41.820;23.490;2022-08-19T02:43:58;4.57;;;3.50;;
10365;SDS011;5229;41.820;23.490;2022-08-19T02:46:28;3.87;;;3.47;;
10365;SDS011;5229;41.820;23.490;2022-08-19T02:48:57;4.00;;;3.60;;
10365;SDS011;5229;41.820;23.490;2022-08-19T02:51:29;4.03;;;3.63;;
10365;SDS011;5229;41.820;23.490;2022-08-19T02:53:57;4.73;;;3.70;;
10365;SDS011;5229;41.820;23.490;2022-08-19T02:56:25;4.37;;;3.97;;
10365;SDS011;5229;41.820;23.490;2022-08-19T02:58:52;4.10;;;3.33;;
10365;SDS011;5229;41.820;23.490;2022-08-19T03:01:20;4.30;;;3.87;;
10365;SDS011;5229;41.820;23.490;2022-08-19T03:03:50;5.23;;;3.83;;
10365;SDS011;5229;41.820;23.490;2022-08-19T03:06:18;3.80;;;3.50;;
10365;SDS011;5229;41.820;23.490;2022-08-19T03:08:46;3.73;;;3.43;;
10365;SDS011;5229;41.820;23.490;2022-08-19T03:11:14;4.13;;;3.60;;
10365;SDS011;5229;41.820;23.490;2022-08-19T03:13:45;5.20;;;3.83;;
10365;SDS011;5229;41.820;23.490;2022-08-19T03:16:14;5.77;;;3.73;;
10365;SDS011;5229;41.820;23.490;2022-08-19T03:18:41;4.57;;;4.17;;
10365;SDS011;5229;41.820;23.490;2022-08-19T03:21:14;7.60;;;4.33;;
10365;SDS011;5229;41.820;23.490;2022-08-19T03:23:42;4.00;;;3.60;;
10365;SDS011;5229;41.820;23.490;2022-08-19T03:26:09;4.20;;;3.80;;
10365;SDS011;5229;41.820;23.490;2022-08-19T03:31:40;5.07;;;4.30;;
10365;SDS011;5229;41.820;23.490;2022-08-19T03:34:09;4.07;;;3.77;;
10365;SDS011;5229;41.820;23.490;2022-08-19T03:36:39;5.27;;;3.70;;
10365;SDS011;5229;41.820;23.490;2022-08-19T03:39:06;4.53;;;3.53;;
10365;SDS011;5229;41.820;23.490;2022-08-19T03:41:35;4.33;;;3.93;;
10365;SDS011;5229;41.820;23.490;2022-08-19T03:44:04;4.40;;;4.00;;
10365;SDS011;5229;41.820;23.490;2022-08-19T03:46:33;4.63;;;3.87;;
10365;SDS011;5229;41.820;23.490;2022-08-19T03:49:04;4.23;;;3.83;;
10365;SDS011;5229;41.820;23.490;2022-08-19T03:51:33;4.00;;;3.60;;
10365;SDS011;5229;41.820;23.490;2022-08-19T03:54:03;4.87;;;4.10;;
10365;SDS011;5229;41.820;23.490;2022-08-19T03:56:33;4.03;;;3.70;;
10365;SDS011;5229;41.820;23.490;2022-08-19T03:59:00;5.70;;;4.10;;
10365;SDS011;5229;41.820;23.490;2022-08-19T04:01:27;5.17;;;3.90;;
10365;SDS011;5229;41.820;23.490;2022-08-19T04:03:58;4.23;;;3.83;;
10365;SDS011;5229;41.820;23.490;2022-08-19T04:06:27;6.33;;;4.00;;
10365;SDS011;5229;41.820;23.490;2022-08-19T04:08:55;4.33;;;3.93;;
10365;SDS011;5229;41.820;23.490;2022-08-19T04:11:25;4.67;;;4.27;;
10365;SDS011;5229;41.820;23.490;2022-08-19T04:13:54;5.33;;;4.27;;
10365;SDS011;5229;41.820;23.490;2022-08-19T04:16:25;5.13;;;4.63;;
10365;SDS011;5229;41.820;23.490;2022-08-19T04:18:54;4.67;;;4.20;;
10365;SDS011;5229;41.820;23.490;2022-08-19T04:21:24;4.73;;;3.60;;
10365;SDS011;5229;41.820;23.490;2022-08-19T04:23:52;4.80;;;4.40;;
10365;SDS011;5229;41.820;23.490;2022-08-19T04:26:23;4.97;;;4.47;;
10365;SDS011;5229;41.820;23.490;2022-08-19T04:28:53;4.37;;;3.97;;
10365;SDS011;5229;41.820;23.490;2022-08-19T04:34:09;3.97;;;3.67;;
10365;SDS011;5229;41.820;23.490;2022-08-19T04:36:41;4.70;;;4.17;;
10365;SDS011;5229;41.820;23.490;2022-08-19T04:39:13;5.00;;;4.50;;
10365;SDS011;5229;41.820;23.490;2022-08-19T04:41:43;4.60;;;4.13;;
10365;SDS011;5229;41.820;23.490;2022-08-19T04:44:29;4.60;;;4.20;;
10365;SDS011;5229;41.820;23.490;2022-08-19T04:46:57;4.23;;;3.83;;
10365;SDS011;5229;41.820;23.490;2022-08-19T04:49:24;4.20;;;3.80;;
10365;SDS011;5229;41.820;23.490;2022-08-19T04:51:51;4.53;;;4.13;;
10365;SDS011;5229;41.820;23.490;2022-08-19T04:54:20;4.10;;;3.80;;
10365;SDS011;5229;41.820;23.490;2022-08-19T04:56:55;4.50;;;4.10;;
10365;SDS011;5229;41.820;23.490;2022-08-19T04:59:22;4.53;;;4.13;;
10365;SDS011;5229;41.820;23.490;2022-08-19T05:01:49;4.90;;;4.40;;
10365;SDS011;5229;41.820;23.490;2022-08-19T05:04:18;4.53;;;4.13;;
10365;SDS011;5229;41.820;23.490;2022-08-19T05:06:46;4.57;;;4.17;;
10365;SDS011;5229;41.820;23.490;2022-08-19T05:09:15;4.03;;;3.72;;
10365;SDS011;5229;41.820;23.490;2022-08-19T05:11:42;5.37;;;4.87;;
10365;SDS011;5229;41.820;23.490;2022-08-19T05:14:11;5.40;;;4.63;;
10365;SDS011;5229;41.820;23.490;2022-08-19T05:16:39;4.60;;;4.10;;
10365;SDS011;5229;41.820;23.490;2022-08-19T05:19:07;5.15;;;4.65;;
10365;SDS011;5229;41.820;23.490;2022-08-19T05:21:51;5.22;;;4.80;;
10365;SDS011;5229;41.820;23.490;2022-08-19T05:24:36;5.38;;;4.88;;
10365;SDS011;5229;41.820;23.490;2022-08-19T05:30:26;5.50;;;5.00;;
10365;SDS011;5229;41.820;23.490;2022-08-19T05:32:53;6.05;;;5.45;;
10365;SDS011;5229;41.820;23.490;2022-08-19T05:35:20;5.20;;;4.70;;
10365;SDS011;5229;41.820;23.490;2022-08-19T05:37:49;6.55;;;5.55;;
10365;SDS011;5229;41.820;23.490;2022-08-19T05:40:19;9.77;;;7.63;;
10365;SDS011;5229;41.820;23.490;2022-08-19T05:42:46;6.82;;;6.13;;
10365;SDS011;5229;41.820;23.490;2022-08-19T05:45:14;9.23;;;6.78;;
10365;SDS011;5229;41.820;23.490;2022-08-19T05:47:46;9.00;;;7.35;;
10365;SDS011;5229;41.820;23.490;2022-08-19T05:50:13;7.35;;;6.65;;
10365;SDS011;5229;41.820;23.490;2022-08-19T05:52:40;7.47;;;6.35;;
10365;SDS011;5229;41.820;23.490;2022-08-19T05:55:07;7.78;;;6.97;;
10365;SDS011;5229;41.820;23.490;2022-08-19T05:57:34;7.28;;;6.57;;
10365;SDS011;5229;41.820;23.490;2022-08-19T06:00:01;7.97;;;6.90;;
10365;SDS011;5229;41.820;23.490;2022-08-19T06:02:33;8.35;;;7.55;;
10365;SDS011;5229;41.820;23.490;2022-08-19T06:05:01;8.40;;;7.55;;
10365;SDS011;5229;41.820;23.490;2022-08-19T06:07:29;8.75;;;7.90;;
10365;SDS011;5229;41.820;23.490;2022-08-19T06:09:56;11.77;;;7.97;;
10365;SDS011;5229;41.820;23.490;2022-08-19T06:12:22;7.75;;;7.05;;
10365;SDS011;5229;41.820;23.490;2022-08-19T06:14:53;8.95;;;7.50;;
10365;SDS011;5229;41.820;23.490;2022-08-19T06:17:20;8.88;;;7.93;;
10365;SDS011;5229;41.820;23.490;2022-08-19T06:19:51;8.15;;;7.38;;
10365;SDS011;5229;41.820;23.490;2022-08-19T06:22:19;7.90;;;7.20;;
10365;SDS011;5229;41.820;23.490;2022-08-19T06:28:07;17.70;;;8.13;;
10365;SDS011;5229;41.820;23.490;2022-08-19T06:30:35;8.18;;;7.38;;
10365;SDS011;5229;41.820;23.490;2022-08-19T06:33:02;7.65;;;6.95;;
10365;SDS011;5229;41.820;23.490;2022-08-19T06:35:29;13.23;;;7.38;;
10365;SDS011;5229;41.820;23.490;2022-08-19T06:37:57;8.25;;;6.65;;
10365;SDS011;5229;41.820;23.490;2022-08-19T06:40:28;9.55;;;8.63;;
10365;SDS011;5229;41.820;23.490;2022-08-19T06:42:55;9.32;;;7.70;;
10365;SDS011;5229;41.820;23.490;2022-08-19T06:45:23;10.52;;;8.23;;
10365;SDS011;5229;41.820;23.490;2022-08-19T06:47:52;8.27;;;6.43;;
10365;SDS011;5229;41.820;23.490;2022-08-19T06:50:20;6.45;;;5.82;;
10365;SDS011;5229;41.820;23.490;2022-08-19T06:52:47;4.53;;;4.13;;
10365;SDS011;5229;41.820;23.490;2022-08-19T06:55:16;4.97;;;4.57;;
10365;SDS011;5229;41.820;23.490;2022-08-19T06:57:43;6.15;;;5.55;;
10365;SDS011;5229;41.820;23.490;2022-08-19T07:00:10;7.43;;;5.82;;
10365;SDS011;5229;41.820;23.490;2022-08-19T07:02:39;7.63;;;6.05;;
10365;SDS011;5229;41.820;23.490;2022-08-19T07:05:06;6.28;;;5.68;;
10365;SDS011;5229;41.820;23.490;2022-08-19T07:07:33;5.93;;;5.00;;
10365;SDS011;5229;41.820;23.490;2022-08-19T07:10:01;6.10;;;5.50;;
10365;SDS011;5229;41.820;23.490;2022-08-19T07:12:31;4.93;;;4.53;;
10365;SDS011;5229;41.820;23.490;2022-08-19T07:14:59;5.40;;;4.90;;
10365;SDS011;5229;41.820;23.490;2022-08-19T07:17:26;5.43;;;4.93;;
10365;SDS011;5229;41.820;23.490;2022-08-19T07:19:53;7.47;;;5.32;;
10365;SDS011;5229;41.820;23.490;2022-08-19T07:22:21;7.75;;;4.80;;
10365;SDS011;5229;41.820;23.490;2022-08-19T07:24:48;5.60;;;5.10;;
10365;SDS011;5229;41.820;23.490;2022-08-19T07:30:38;5.07;;;4.68;;
10365;SDS011;5229;41.820;23.490;2022-08-19T07:33:05;5.20;;;4.70;;
10365;SDS011;5229;41.820;23.490;2022-08-19T07:35:32;7.43;;;4.55;;
10365;SDS011;5229;41.820;23.490;2022-08-19T07:37:59;4.85;;;4.45;;
10365;SDS011;5229;41.820;23.490;2022-08-19T07:40:30;4.40;;;4.00;;
10365;SDS011;5229;41.820;23.490;2022-08-19T07:43:00;4.55;;;4.15;;
10365;SDS011;5229;41.820;23.490;2022-08-19T07:45:27;7.35;;;4.07;;
10365;SDS011;5229;41.820;23.490;2022-08-19T07:47:55;4.00;;;3.60;;
10365;SDS011;5229;41.820;23.490;2022-08-19T07:50:22;4.35;;;4.00;;
10365;SDS011;5229;41.820;23.490;2022-08-19T07:52:49;4.82;;;4.32;;
10365;SDS011;5229;41.820;23.490;2022-08-19T07:55:17;3.35;;;3.05;;
10365;SDS011;5229;41.820;23.490;2022-08-19T07:57:59;4.40;;;4.03;;
10365;SDS011;5229;41.820;23.490;2022-08-19T08:00:26;3.88;;;3.58;;
10365;SDS011;5229;41.820;23.490;2022-08-19T08:02:53;6.07;;;3.58;;
10365;SDS011;5229;41.820;23.490;2022-08-19T08:05:24;4.80;;;4.28;;
10365;SDS011;5229;41.820;23.490;2022-08-19T08:08:08;3.53;;;3.30;;
10365;SDS011;5229;41.820;23.490;2022-08-19T08:10:55;6.10;;;4.05;;
10365;SDS011;5229;41.820;23.490;2022-08-19T08:13:22;3.67;;;3.38;;
10365;SDS011;5229;41.820;23.490;2022-08-19T08:19:11;3.72;;;3.40;;
10365;SDS011;5229;41.820;23.490;2022-08-19T08:24:27;4.63;;;3.50;;
10365;SDS011;5229;41.820;23.490;2022-08-19T08:26:59;4.32;;;3.38;;
10365;SDS011;5229;41.820;23.490;2022-08-19T08:29:29;3.85;;;3.55;;
10365;SDS011;5229;41.820;23.490;2022-08-19T08:31:58;3.83;;;3.47;;
10365;SDS011;5229;41.820;23.490;2022-08-19T08:34:28;3.40;;;3.10;;
10365;SDS011;5229;41.820;23.490;2022-08-19T08:36:55;3.13;;;2.92;;
10365;SDS011;5229;41.820;23.490;2022-08-19T08:39:24;5.30;;;3.30;;
10365;SDS011;5229;41.820;23.490;2022-08-19T08:41:52;3.42;;;2.92;;
10365;SDS011;5229;41.820;23.490;2022-08-19T08:44:27;3.70;;;2.85;;
10365;SDS011;5229;41.820;23.490;2022-08-19T08:47:05;2.45;;;2.30;;
10365;SDS011;5229;41.820;23.490;2022-08-19T08:49:41;3.05;;;2.75;;
10365;SDS011;5229;41.820;23.490;2022-08-19T08:52:13;3.05;;;2.40;;
10365;SDS011;5229;41.820;23.490;2022-08-19T08:54:47;3.15;;;2.50;;
10365;SDS011;5229;41.820;23.490;2022-08-19T08:57:19;2.97;;;2.15;;
10365;SDS011;5229;41.820;23.490;2022-08-19T08:59:52;5.65;;;2.15;;
10365;SDS011;5229;41.820;23.490;2022-08-19T09:02:23;2.00;;;1.88;;
10365;SDS011;5229;41.820;23.490;2022-08-19T09:04:50;1.95;;;1.80;;
10365;SDS011;5229;41.820;23.490;2022-08-19T09:07:26;2.00;;;1.80;;
10365;SDS011;5229;41.820;23.490;2022-08-19T09:10:09;1.85;;;1.67;;
10365;SDS011;5229;41.820;23.490;2022-08-19T09:12:49;3.85;;;1.60;;
10365;SDS011;5229;41.820;23.490;2022-08-19T09:15:25;2.05;;;1.80;;
10365;SDS011;5229;41.820;23.490;2022-08-19T09:17:58;1.65;;;1.55;;
10365;SDS011;5229;41.820;23.490;2022-08-19T09:20:26;1.90;;;1.80;;
10365;SDS011;5229;41.820;23.490;2022-08-19T09:22:53;2.08;;;1.90;;
10365;SDS011;5229;41.820;23.490;2022-08-19T09:25:22;1.90;;;1.80;;
10365;SDS011;5229;41.820;23.490;2022-08-19T09:27:49;2.17;;;1.88;;
10365;SDS011;5229;41.820;23.490;2022-08-19T09:30:23;2.38;;;2.00;;
10365;SDS011;5229;41.820;23.490;2022-08-19T09:32:51;3.80;;;1.65;;
10365;SDS011;5229;41.820;23.490;2022-08-19T09:35:19;2.10;;;1.95;;
10365;SDS011;5229;41.820;23.490;2022-08-19T09:37:48;1.95;;;1.80;;
10365;SDS011;5229;41.820;23.490;2022-08-19T09:40:16;1.63;;;1.38;;
10365;SDS011;5229;41.820;23.490;2022-08-19T09:42:45;1.98;;;1.70;;
10365;SDS011;5229;41.820;23.490;2022-08-19T09:45:13;1.85;;;1.55;;
10365;SDS011;5229;41.820;23.490;2022-08-19T09:47:46;2.85;;;1.90;;
10365;SDS011;5229;41.820;23.490;2022-08-19T09:50:13;1.60;;;1.50;;
10365;SDS011;5229;41.820;23.490;2022-08-19T09:52:40;2.00;;;1.80;;
10365;SDS011;5229;41.820;23.490;2022-08-19T09:55:09;2.03;;;1.92;;
10365;SDS011;5229;41.820;23.490;2022-08-19T09:57:36;1.80;;;1.70;;
10365;SDS011;5229;41.820;23.490;2022-08-19T10:00:06;2.17;;;1.60;;
10365;SDS011;5229;41.820;23.490;2022-08-19T10:02:35;1.65;;;1.55;;
10365;SDS011;5229;41.820;23.490;2022-08-19T10:05:02;2.25;;;1.63;;
10365;SDS011;5229;41.820;23.490;2022-08-19T10:07:46;1.70;;;1.60;;
10365;SDS011;5229;41.820;23.490;2022-08-19T10:10:13;1.70;;;1.40;;
10365;SDS011;5229;41.820;23.490;2022-08-19T10:12:40;1.40;;;1.30;;
10365;SDS011;5229;41.820;23.490;2022-08-19T10:15:09;3.85;;;1.58;;
10365;SDS011;5229;41.820;23.490;2022-08-19T10:17:37;2.15;;;1.50;;
10365;SDS011;5229;41.820;23.490;2022-08-19T10:20:04;1.60;;;1.50;;
10365;SDS011;5229;41.820;23.490;2022-08-19T10:22:31;1.80;;;1.50;;
10365;SDS011;5229;41.820;23.490;2022-08-19T10:25:00;1.83;;;1.73;;
10365;SDS011;5229;41.820;23.490;2022-08-19T10:27:27;1.95;;;1.60;;
10365;SDS011;5229;41.820;23.490;2022-08-19T10:29:55;1.60;;;1.50;;
10365;SDS011;5229;41.820;23.490;2022-08-19T10:32:27;1.50;;;1.40;;
10365;SDS011;5229;41.820;23.490;2022-08-19T10:34:54;1.88;;;1.67;;
10365;SDS011;5229;41.820;23.490;2022-08-19T10:37:21;3.35;;;1.48;;
10365;SDS011;5229;41.820;23.490;2022-08-19T10:39:48;1.73;;;1.45;;
10365;SDS011;5229;41.820;23.490;2022-08-19T10:42:15;1.83;;;1.73;;
10365;SDS011;5229;41.820;23.490;2022-08-19T10:44:43;1.45;;;1.35;;
10365;SDS011;5229;41.820;23.490;2022-08-19T10:47:11;1.67;;;1.58;;
10365;SDS011;5229;41.820;23.490;2022-08-19T10:49:40;2.58;;;1.77;;
10365;SDS011;5229;41.820;23.490;2022-08-19T10:52:20;3.17;;;2.03;;
10365;SDS011;5229;41.820;23.490;2022-08-19T10:55:04;4.55;;;2.13;;
10365;SDS011;5229;41.820;23.490;2022-08-19T11:01:11;2.10;;;2.00;;
10365;SDS011;5229;41.820;23.490;2022-08-19T11:03:38;4.88;;;2.10;;
10365;SDS011;5229;41.820;23.490;2022-08-19T11:06:07;2.10;;;2.00;;
10365;SDS011;5229;41.820;23.490;2022-08-19T11:08:34;2.75;;;2.50;;
10365;SDS011;5229;41.820;23.490;2022-08-19T11:11:03;2.58;;;2.38;;
10365;SDS011;5229;41.820;23.490;2022-08-19T11:13:31;2.10;;;2.00;;
10365;SDS011;5229;41.820;23.490;2022-08-19T11:16:00;3.38;;;2.45;;
10365;SDS011;5229;41.820;23.490;2022-08-19T11:18:29;2.50;;;2.28;;
10365;SDS011;5229;41.820;23.490;2022-08-19T11:21:08;2.83;;;2.63;;
10365;SDS011;5229;41.820;23.490;2022-08-19T11:23:37;3.13;;;2.53;;
10365;SDS011;5229;41.820;23.490;2022-08-19T11:26:04;7.15;;;2.70;;
10365;SDS011;5229;41.820;23.490;2022-08-19T11:28:31;2.65;;;2.35;;
10365;SDS011;5229;41.820;23.490;2022-08-19T11:30:58;5.32;;;2.67;;
10365;SDS011;5229;41.820;23.490;2022-08-19T11:33:34;5.05;;;2.88;;
10365;SDS011;5229;41.820;23.490;2022-08-19T11:42:18;2.83;;;2.55;;
10365;SDS011;5229;41.820;23.490;2022-08-19T11:44:59;3.67;;;2.70;;
10365;SDS011;5229;41.820;23.490;2022-08-19T11:47:25;2.97;;;2.55;;
10365;SDS011;5229;41.820;23.490;2022-08-19T11:53:17;3.60;;;2.63;;
10365;SDS011;5229;41.820;23.490;2022-08-19T11:55:46;6.07;;;2.83;;
10365;SDS011;5229;41.820;23.490;2022-08-19T11:58:14;2.92;;;2.72;;
10365;SDS011;5229;41.820;23.490;2022-08-19T12:00:43;3.20;;;2.90;;
10365;SDS011;5229;41.820;23.490;2022-08-19T12:03:11;3.60;;;2.60;;
10365;SDS011;5229;41.820;23.490;2022-08-19T12:05:39;3.42;;;2.78;;
10365;SDS011;5229;41.820;23.490;2022-08-19T12:08:07;2.80;;;2.60;;
10365;SDS011;5229;41.820;23.490;2022-08-19T12:10:35;3.55;;;2.70;;
10365;SDS011;5229;41.820;23.490;2022-08-19T12:13:06;4.45;;;2.88;;
10365;SDS011;5229;41.820;23.490;2022-08-19T12:15:35;4.90;;;2.75;;
10365;SDS011;5229;41.820;23.490;2022-08-19T12:18:03;2.97;;;2.78;;
10365;SDS011;5229;41.820;23.490;2022-08-19T12:20:30;4.47;;;2.40;;
10365;SDS011;5229;41.820;23.490;2022-08-19T12:23:00;4.80;;;2.78;;
10365;SDS011;5229;41.820;23.490;2022-08-19T12:25:27;2.70;;;2.50;;
10365;SDS011;5229;41.820;23.490;2022-08-19T12:27:56;2.95;;;2.50;;
10365;SDS011;5229;41.820;23.490;2022-08-19T12:30:25;3.50;;;2.47;;
10365;SDS011;5229;41.820;23.490;2022-08-19T12:32:52;4.55;;;2.70;;
10365;SDS011;5229;41.820;23.490;2022-08-19T12:35:19;6.25;;;3.00;;
10365;SDS011;5229;41.820;23.490;2022-08-19T12:37:48;4.93;;;2.83;;
10365;SDS011;5229;41.820;23.490;2022-08-19T12:40:15;5.30;;;2.95;;
10365;SDS011;5229;41.820;23.490;2022-08-19T12:46:07;4.95;;;2.78;;
10365;SDS011;5229;41.820;23.490;2022-08-19T12:48:34;4.18;;;2.45;;
10365;SDS011;5229;41.820;23.490;2022-08-19T12:51:05;4.90;;;2.60;;
10365;SDS011;5229;41.820;23.490;2022-08-19T12:53:33;3.53;;;2.80;;
10365;SDS011;5229;41.820;23.490;2022-08-19T13:02:13;3.75;;;2.92;;
10365;SDS011;5229;41.820;23.490;2022-08-19T13:04:40;7.13;;;2.80;;
10365;SDS011;5229;41.820;23.490;2022-08-19T13:07:07;4.53;;;2.63;;
10365;SDS011;5229;41.820;23.490;2022-08-19T13:12:56;4.85;;;3.00;;
10365;SDS011;5229;41.820;23.490;2022-08-19T13:21:51;3.83;;;2.97;;
10365;SDS011;5229;41.820;23.490;2022-08-19T13:24:20;3.40;;;3.03;;
10365;SDS011;5229;41.820;23.490;2022-08-19T13:30:10;4.57;;;2.90;;
10365;SDS011;5229;41.820;23.490;2022-08-19T13:36:19;5.13;;;3.05;;
10365;SDS011;5229;41.820;23.490;2022-08-19T13:38:47;6.32;;;3.78;;
10365;SDS011;5229;41.820;23.490;2022-08-19T13:41:14;3.40;;;3.10;;
10365;SDS011;5229;41.820;23.490;2022-08-19T13:43:40;3.97;;;3.10;;
10365;SDS011;5229;41.820;23.490;2022-08-19T13:46:08;5.97;;;3.70;;
10365;SDS011;5229;41.820;23.490;2022-08-19T13:48:39;4.07;;;3.63;;
10365;SDS011;5229;41.820;23.490;2022-08-19T13:51:07;4.85;;;3.67;;
10365;SDS011;5229;41.820;23.490;2022-08-19T13:56:58;4.88;;;3.38;;
10365;SDS011;5229;41.820;23.490;2022-08-19T13:59:26;3.65;;;3.13;;
10365;SDS011;5229;41.820;23.490;2022-08-19T14:05:15;6.40;;;3.78;;
10365;SDS011;5229;41.820;23.490;2022-08-19T14:10:46;15.05;;;3.90;;
10365;SDS011;5229;41.820;23.490;2022-08-19T14:13:16;4.05;;;3.28;;
10365;SDS011;5229;41.820;23.490;2022-08-19T14:15:44;3.80;;;3.40;;
10365;SDS011;5229;41.820;23.490;2022-08-19T14:18:12;5.07;;;3.63;;
10365;SDS011;5229;41.820;23.490;2022-08-19T14:20:39;4.03;;;3.30;;
10365;SDS011;5229;41.820;23.490;2022-08-19T14:23:06;4.00;;;3.30;;
10365;SDS011;5229;41.820;23.490;2022-08-19T14:25:34;3.92;;;3.45;;
10365;SDS011;5229;41.820;23.490;2022-08-19T14:28:01;10.35;;;4.20;;
10365;SDS011;5229;41.820;23.490;2022-08-19T14:30:31;5.45;;;3.47;;
10365;SDS011;5229;41.820;23.490;2022-08-19T14:33:00;6.93;;;3.70;;
10365;SDS011;5229;41.820;23.490;2022-08-19T14:35:28;4.38;;;3.05;;
10365;SDS011;5229;41.820;23.490;2022-08-19T14:44:06;8.38;;;3.83;;
10365;SDS011;5229;41.820;23.490;2022-08-19T14:49:57;3.50;;;3.20;;
10365;SDS011;5229;41.820;23.490;2022-08-19T14:52:24;9.98;;;4.07;;
10365;SDS011;5229;41.820;23.490;2022-08-19T14:54:51;4.10;;;3.70;;
10365;SDS011;5229;41.820;23.490;2022-08-19T14:57:18;4.90;;;3.58;;
10365;SDS011;5229;41.820;23.490;2022-08-19T15:02:31;5.45;;;3.22;;
10365;SDS011;5229;41.820;23.490;2022-08-19T15:11:43;5.90;;;3.78;;
10365;SDS011;5229;41.820;23.490;2022-08-19T15:17:32;5.05;;;3.78;;
10365;SDS011;5229;41.820;23.490;2022-08-19T15:20:00;5.65;;;3.53;;
10365;SDS011;5229;41.820;23.490;2022-08-19T15:22:27;7.15;;;3.00;;
10365;SDS011;5229;41.820;23.490;2022-08-19T15:24:54;4.50;;;3.20;;
10365;SDS011;5229;41.820;23.490;2022-08-19T15:27:22;3.88;;;3.47;;
10365;SDS011;5229;41.820;23.490;2022-08-19T15:29:49;5.60;;;3.50;;
10365;SDS011;5229;41.820;23.490;2022-08-19T15:32:16;5.10;;;3.30;;
10365;SDS011;5229;41.820;23.490;2022-08-19T15:44:49;7.03;;;3.67;;
10365;SDS011;5229;41.820;23.490;2022-08-19T15:47:16;3.47;;;3.17;;
10365;SDS011;5229;41.820;23.490;2022-08-19T15:49:44;4.93;;;3.47;;
10365;SDS011;5229;41.820;23.490;2022-08-19T15:52:11;6.95;;;3.92;;
10365;SDS011;5229;41.820;23.490;2022-08-19T15:54:37;4.47;;;2.97;;
10365;SDS011;5229;41.820;23.490;2022-08-19T15:57:05;4.85;;;3.10;;
10365;SDS011;5229;41.820;23.490;2022-08-19T15:59:50;4.88;;;3.28;;
10365;SDS011;5229;41.820;23.490;2022-08-19T16:02:34;4.60;;;3.28;;
10365;SDS011;5229;41.820;23.490;2022-08-19T16:05:20;5.18;;;3.60;;
10365;SDS011;5229;41.820;23.490;2022-08-19T16:08:06;5.07;;;3.97;;
10365;SDS011;5229;41.820;23.490;2022-08-19T16:10:34;4.72;;;3.70;;
10365;SDS011;5229;41.820;23.490;2022-08-19T16:13:01;3.25;;;2.92;;
10365;SDS011;5229;41.820;23.490;2022-08-19T16:15:31;5.07;;;3.20;;
10365;SDS011;5229;41.820;23.490;2022-08-19T16:17:59;2.55;;;2.35;;
10365;SDS011;5229;41.820;23.490;2022-08-19T16:20:28;6.32;;;3.17;;
10365;SDS011;5229;41.820;23.490;2022-08-19T16:22:56;7.55;;;3.25;;
10365;SDS011;5229;41.820;23.490;2022-08-19T16:25:24;9.35;;;3.42;;
10365;SDS011;5229;41.820;23.490;2022-08-19T16:27:53;3.60;;;2.95;;
10365;SDS011;5229;41.820;23.490;2022-08-19T16:30:20;4.18;;;3.78;;
10365;SDS011;5229;41.820;23.490;2022-08-19T16:32:48;3.83;;;3.28;;
10365;SDS011;5229;41.820;23.490;2022-08-19T16:41:22;5.05;;;3.35;;
10365;SDS011;5229;41.820;23.490;2022-08-19T16:43:49;5.78;;;3.25;;
10365;SDS011;5229;41.820;23.490;2022-08-19T16:46:18;7.45;;;3.33;;
10365;SDS011;5229;41.820;23.490;2022-08-19T16:48:47;5.40;;;3.95;;
10365;SDS011;5229;41.820;23.490;2022-08-19T16:51:15;4.32;;;3.70;;
10365;SDS011;5229;41.820;23.490;2022-08-19T16:53:42;10.60;;;4.10;;
10365;SDS011;5229;41.820;23.490;2022-08-19T16:56:09;4.20;;;3.70;;
10365;SDS011;5229;41.820;23.490;2022-08-19T16:58:36;5.25;;;3.22;;
10365;SDS011;5229;41.820;23.490;2022-08-19T17:01:04;5.40;;;3.67;;
10365;SDS011;5229;41.820;23.490;2022-08-19T17:03:34;5.28;;;3.67;;
10365;SDS011;5229;41.820;23.490;2022-08-19T17:06:07;5.28;;;4.00;;
10365;SDS011;5229;41.820;23.490;2022-08-19T17:08:37;4.72;;;3.13;;